Time;durP1;ratioP1;P1;durP2;ratioP2;P2;SDS_P1;SDS_P2;PMS_P1;PMS_P2;Temp;Humidity;BMP_temperature;BMP_pressure;BME280_temperature;BME280_humidity;BME280_pressure;Samples;Min_cycle;Max_cycle;Signal;HPM_P1;HPM_P2
2023/12/27 00:02:29;;;;;;;8.37;4.57;;;5.30;72.10;;;;;;6283957;28;20237;-80
2023/12/27 00:05:35;;;;;;;27.03;14.83;;;5.30;72.20;;;;;;6286223;28;20248;-81
2023/12/27 00:08:38;;;;;;;10.87;5.10;;;5.30;72.00;;;;;;6285096;28;20721;-80
2023/12/27 00:11:41;;;;;;;6.00;3.90;;;5.10;72.30;;;;;;6279005;28;20226;-82
2023/12/27 00:14:44;;;;;;;6.13;4.67;;;5.10;72.50;;;;;;6266138;28;20233;-83
2023/12/27 00:17:48;;;;;;;13.83;8.40;;;5.00;72.60;;;;;;6287103;28;20244;-79
2023/12/27 00:20:52;;;;;;;4.80;4.30;;;5.00;72.70;;;;;;6282895;28;20230;-81
2023/12/27 00:23:56;;;;;;;10.30;4.60;;;5.00;72.70;;;;;;6288024;28;20233;-81
2023/12/27 00:26:59;;;;;;;14.83;7.23;;;5.00;72.70;;;;;;6290835;28;20294;-78
2023/12/27 00:30:03;;;;;;;32.63;17.93;;;4.80;73.10;;;;;;6293142;28;20242;-83
2023/12/27 00:33:06;;;;;;;9.97;5.00;;;4.80;73.30;;;;;;6289547;28;20241;-80
2023/12/27 00:36:11;;;;;;;6.83;4.53;;;4.70;73.40;;;;;;6293721;28;20233;-80
2023/12/27 00:39:15;;;;;;;6.87;4.30;;;4.70;73.40;;;;;;6307903;28;20230;-76
2023/12/27 00:42:19;;;;;;;9.87;4.30;;;4.80;73.20;;;;;;6291308;28;20239;-75
2023/12/27 00:45:23;;;;;;;6.47;4.00;;;4.70;73.60;;;;;;6290787;28;20927;-80
2023/12/27 00:48:26;;;;;;;7.43;4.30;;;4.70;73.70;;;;;;6292319;28;20318;-80
2023/12/27 00:51:33;;;;;;;4.27;3.70;;;4.50;73.80;;;;;;6286595;28;20233;-81
2023/12/27 00:54:36;;;;;;;6.67;4.00;;;4.50;74.10;;;;;;6279982;28;20285;-81
2023/12/27 00:57:39;;;;;;;10.23;4.07;;;4.50;74.20;;;;;;6301303;28;20271;-81
2023/12/27 01:00:42;;;;;;;7.63;4.13;;;4.50;74.00;;;;;;6308410;28;20779;-80
2023/12/27 01:03:46;;;;;;;6.43;4.03;;;4.50;74.20;;;;;;6288440;28;20306;-81
2023/12/27 01:06:51;;;;;;;8.23;4.40;;;4.40;74.30;;;;;;6292493;28;20748;-78
2023/12/27 01:09:54;;;;;;;5.53;4.13;;;4.40;74.60;;;;;;6289905;28;20997;-83
2023/12/27 01:12:57;;;;;;;10.93;4.63;;;4.40;74.70;;;;;;6283932;28;20222;-81
2023/12/27 01:16:02;;;;;;;10.33;5.43;;;4.30;74.90;;;;;;6299291;28;20265;-75
2023/12/27 01:19:05;;;;;;;10.80;4.73;;;4.30;74.90;;;;;;6297635;28;20776;-81
2023/12/27 01:22:10;;;;;;;9.20;4.47;;;4.30;75.00;;;;;;6286248;28;20729;-79
2023/12/27 01:25:14;;;;;;;10.80;4.33;;;4.30;75.10;;;;;;6273490;28;20233;-80
2023/12/27 01:28:17;;;;;;;7.57;4.40;;;4.40;74.80;;;;;;6291429;28;20240;-80
2023/12/27 01:31:20;;;;;;;7.80;4.10;;;4.40;74.80;;;;;;6290539;28;20233;-80
2023/12/27 01:34:24;;;;;;;6.00;4.33;;;4.40;74.80;;;;;;6293129;28;20636;-77
2023/12/27 01:37:28;;;;;;;10.50;4.43;;;4.40;74.90;;;;;;6303650;28;20233;-79
2023/12/27 01:40:31;;;;;;;6.17;4.07;;;4.50;74.70;;;;;;6282901;28;20234;-82
2023/12/27 01:43:35;;;;;;;8.60;4.87;;;4.50;74.60;;;;;;6278002;28;20252;-80
2023/12/27 01:46:38;;;;;;;9.97;4.30;;;4.50;74.60;;;;;;6279648;28;20272;-80
2023/12/27 01:49:42;;;;;;;10.57;4.40;;;4.40;74.80;;;;;;6271765;28;20248;-82
2023/12/27 01:52:47;;;;;;;8.97;4.23;;;4.40;74.80;;;;;;6285497;28;20236;-80
2023/12/27 01:55:51;;;;;;;6.53;5.53;;;4.30;75.00;;;;;;6287961;28;20234;-82
2023/12/27 01:58:54;;;;;;;7.50;4.30;;;4.30;75.00;;;;;;6294518;28;20233;-83
2023/12/27 02:01:58;;;;;;;7.67;4.10;;;4.30;75.20;;;;;;6287537;28;20237;-81
2023/12/27 02:05:02;;;;;;;6.10;4.20;;;4.20;75.40;;;;;;6286079;28;20226;-81
2023/12/27 02:08:09;;;;;;;4.33;4.03;;;4.30;75.30;;;;;;6292104;28;20354;-81
2023/12/27 02:11:12;;;;;;;7.03;4.73;;;4.20;75.30;;;;;;6288545;28;20225;-81
2023/12/27 02:14:16;;;;;;;12.73;4.97;;;4.20;75.50;;;;;;6282602;28;20234;-82
2023/12/27 02:17:20;;;;;;;7.37;4.03;;;4.20;75.50;;;;;;6283024;28;20430;-80
2023/12/27 02:20:25;;;;;;;13.73;3.93;;;4.10;75.70;;;;;;6271112;28;20233;-81
2023/12/27 02:23:33;;;;;;;4.67;4.20;;;4.10;75.70;;;;;;6287051;28;20237;-81
2023/12/27 02:26:38;;;;;;;9.03;4.10;;;4.10;75.70;;;;;;6287824;28;20705;-79
2023/12/27 02:29:41;;;;;;;10.17;4.17;;;4.10;75.70;;;;;;6289268;28;20244;-81
2023/12/27 02:32:46;;;;;;;4.47;4.10;;;4.10;75.60;;;;;;6288434;28;20244;-81
2023/12/27 02:35:49;;;;;;;5.10;4.50;;;4.10;75.80;;;;;;6287692;28;20248;-81
2023/12/27 02:38:53;;;;;;;8.33;4.27;;;4.00;75.80;;;;;;6279638;28;20237;-81
2023/12/27 02:41:57;;;;;;;5.40;4.80;;;4.00;75.90;;;;;;6275658;28;20233;-80
2023/12/27 02:45:01;;;;;;;10.63;4.37;;;4.00;75.80;;;;;;6274248;28;20229;-79
2023/12/27 02:48:04;;;;;;;8.97;4.13;;;4.00;75.90;;;;;;6282426;28;20229;-81
2023/12/27 02:51:08;;;;;;;9.27;4.57;;;4.00;75.90;;;;;;6285595;28;20256;-79
2023/12/27 02:54:11;;;;;;;8.77;4.40;;;4.00;75.90;;;;;;6279741;28;20327;-81
2023/12/27 02:57:16;;;;;;;8.13;3.87;;;4.00;75.90;;;;;;6275116;28;20245;-82
2023/12/27 03:00:19;;;;;;;7.70;4.53;;;3.90;75.90;;;;;;6271340;28;20249;-78
2023/12/27 03:03:22;;;;;;;9.13;4.97;;;4.00;76.00;;;;;;6291366;28;20252;-80
2023/12/27 03:06:25;;;;;;;6.47;3.90;;;4.00;75.80;;;;;;6277345;28;20233;-81
2023/12/27 03:09:29;;;;;;;9.33;4.97;;;4.00;75.80;;;;;;6276282;28;20233;-80
2023/12/27 03:12:34;;;;;;;10.60;4.70;;;4.00;75.90;;;;;;6286982;28;20720;-81
2023/12/27 03:15:38;;;;;;;7.40;4.00;;;4.00;75.90;;;;;;6278167;28;20295;-81
2023/12/27 03:18:41;;;;;;;11.40;4.30;;;3.90;75.90;;;;;;6286247;28;20234;-80
2023/12/27 03:21:44;;;;;;;7.57;4.13;;;3.90;76.00;;;;;;6279009;28;20334;-83
2023/12/27 03:24:48;;;;;;;11.33;4.20;;;3.90;76.20;;;;;;6287955;28;20248;-81
2023/12/27 03:27:52;;;;;;;9.10;4.60;;;3.90;76.20;;;;;;6284745;28;20233;-81
2023/12/27 03:30:56;;;;;;;7.97;4.13;;;3.90;76.20;;;;;;6278261;28;20238;-80
2023/12/27 03:34:00;;;;;;;8.63;4.60;;;3.90;76.20;;;;;;6285483;28;20237;-78
2023/12/27 03:37:03;;;;;;;6.97;3.90;;;3.90;76.30;;;;;;6268734;28;20268;-81
2023/12/27 03:40:08;;;;;;;11.37;4.60;;;3.90;76.30;;;;;;6286769;28;20359;-79
2023/12/27 03:43:12;;;;;;;14.23;4.10;;;3.90;76.20;;;;;;6286610;28;20607;-81
2023/12/27 03:46:18;;;;;;;8.23;4.37;;;3.90;76.00;;;;;;6276304;28;20750;-81
2023/12/27 03:49:21;;;;;;;8.60;4.40;;;3.90;76.00;;;;;;6285423;28;20245;-81
2023/12/27 03:52:25;;;;;;;5.77;4.43;;;3.80;76.20;;;;;;6271077;28;20245;-80
2023/12/27 03:55:29;;;;;;;9.73;4.37;;;3.90;76.10;;;;;;6260973;28;20245;-81
2023/12/27 03:58:34;;;;;;;7.73;4.20;;;3.90;76.00;;;;;;6283263;28;20245;-80
2023/12/27 04:01:37;;;;;;;13.57;4.63;;;3.70;76.40;;;;;;6282787;28;20240;-82
2023/12/27 04:04:40;;;;;;;6.63;4.33;;;3.70;76.60;;;;;;6275029;28;20333;-82
2023/12/27 04:07:47;;;;;;;4.63;4.20;;;3.60;76.70;;;;;;6273878;28;20234;-79
2023/12/27 04:10:50;;;;;;;7.90;4.13;;;3.70;76.60;;;;;;6267720;28;20237;-81
2023/12/27 04:13:55;;;;;;;10.50;4.17;;;3.70;76.50;;;;;;6276793;28;20229;-82
2023/12/27 04:16:58;;;;;;;11.03;4.23;;;3.80;76.30;;;;;;6288664;28;20237;-79
2023/12/27 04:20:01;;;;;;;10.10;4.87;;;3.70;76.20;;;;;;6280827;28;20881;-80
2023/12/27 04:23:04;;;;;;;9.47;4.30;;;3.70;76.40;;;;;;6284335;28;20240;-81
2023/12/27 04:26:08;;;;;;;5.70;4.13;;;3.60;76.50;;;;;;6290354;28;20701;-79
2023/12/27 04:29:12;;;;;;;7.97;4.87;;;3.60;76.40;;;;;;6289858;28;20233;-81
2023/12/27 04:32:15;;;;;;;12.67;5.03;;;3.60;76.60;;;;;;6279266;28;20324;-81
2023/12/27 04:35:19;;;;;;;9.03;4.40;;;3.60;76.60;;;;;;6272679;28;20260;-80
2023/12/27 04:38:22;;;;;;;8.80;3.67;;;3.60;76.60;;;;;;6285635;28;20367;-82
2023/12/27 04:41:25;;;;;;;7.87;4.03;;;3.50;76.70;;;;;;6286922;28;20229;-80
2023/12/27 04:44:29;;;;;;;9.63;4.00;;;3.60;76.60;;;;;;6289084;28;20264;-82
2023/12/27 04:47:33;;;;;;;6.67;4.20;;;3.60;76.40;;;;;;6282276;28;20245;-81
2023/12/27 04:50:36;;;;;;;10.30;5.07;;;3.60;76.20;;;;;;6282380;28;20246;-82
2023/12/27 04:53:39;;;;;;;8.37;4.10;;;3.60;76.20;;;;;;6285628;28;20275;-80
2023/12/27 04:56:43;;;;;;;9.07;4.50;;;3.60;76.10;;;;;;6288738;28;20308;-81
2023/12/27 04:59:47;;;;;;;7.97;4.83;;;3.60;76.10;;;;;;6283678;28;20236;-80
2023/12/27 05:02:52;;;;;;;7.20;3.90;;;3.60;76.20;;;;;;6284523;28;20256;-82
2023/12/27 05:05:55;;;;;;;10.70;4.40;;;3.60;76.20;;;;;;6283711;28;20234;-83
2023/12/27 05:09:03;;;;;;;8.03;4.43;;;3.50;76.20;;;;;;6288275;28;20229;-81
2023/12/27 05:12:08;;;;;;;7.87;4.60;;;3.50;76.30;;;;;;6279804;28;20270;-80
2023/12/27 05:15:13;;;;;;;6.93;4.37;;;3.50;76.70;;;;;;6272641;28;20241;-82
2023/12/27 05:18:17;;;;;;;8.77;4.67;;;3.50;76.60;;;;;;6286201;28;20240;-81
2023/12/27 05:21:20;;;;;;;9.63;4.77;;;3.50;76.50;;;;;;6291014;28;20295;-81
2023/12/27 05:24:23;;;;;;;6.33;4.27;;;3.50;76.20;;;;;;6288393;28;20285;-80
2023/12/27 05:27:27;;;;;;;12.40;4.43;;;3.50;76.20;;;;;;6290088;28;20248;-81
2023/12/27 05:30:31;;;;;;;5.87;3.83;;;3.50;76.30;;;;;;6281390;28;20242;-81
2023/12/27 05:33:35;;;;;;;10.53;4.60;;;3.50;76.00;;;;;;6280116;28;20240;-79
2023/12/27 05:36:38;;;;;;;8.40;4.27;;;3.50;76.10;;;;;;6272077;28;20321;-82
2023/12/27 05:39:42;;;;;;;14.33;4.37;;;3.50;76.40;;;;;;6283302;28;20248;-80
2023/12/27 05:42:47;;;;;;;10.37;4.50;;;3.50;76.50;;;;;;6278277;28;20233;-81
2023/12/27 05:45:52;;;;;;;5.13;4.57;;;3.40;76.40;;;;;;6280217;28;20233;-81
2023/12/27 05:48:55;;;;;;;8.53;4.20;;;3.40;76.60;;;;;;6285329;28;20233;-81
2023/12/27 05:51:58;;;;;;;8.07;4.10;;;3.30;76.60;;;;;;6280923;28;20750;-79
2023/12/27 05:55:02;;;;;;;5.23;3.67;;;3.30;76.80;;;;;;6279569;28;20230;-82
2023/12/27 05:58:05;;;;;;;11.60;4.70;;;3.30;76.70;;;;;;6277208;28;20253;-79
2023/12/27 06:01:10;;;;;;;10.03;4.67;;;3.30;76.80;;;;;;6276944;28;20233;-82
2023/12/27 06:04:14;;;;;;;12.03;4.97;;;3.30;76.90;;;;;;6277696;28;20311;-80
2023/12/27 06:07:17;;;;;;;9.50;4.77;;;3.30;76.90;;;;;;6280898;28;20236;-82
2023/12/27 06:10:20;;;;;;;6.43;4.00;;;3.30;76.90;;;;;;6287491;28;20229;-79
2023/12/27 06:13:23;;;;;;;5.13;4.00;;;3.20;77.00;;;;;;6273994;28;20233;-79
2023/12/27 06:16:28;;;;;;;9.27;4.17;;;3.30;77.00;;;;;;6288788;28;20272;-77
2023/12/27 06:19:32;;;;;;;6.53;4.00;;;3.10;77.20;;;;;;6282903;28;20225;-80
2023/12/27 06:22:35;;;;;;;8.43;4.10;;;3.10;77.30;;;;;;6278157;28;20301;-80
2023/12/27 06:25:38;;;;;;;8.50;4.40;;;3.20;77.20;;;;;;6283355;28;20241;-80
2023/12/27 06:28:43;;;;;;;10.40;4.83;;;3.10;77.20;;;;;;6280350;28;20234;-79
2023/12/27 06:31:48;;;;;;;10.27;5.23;;;3.10;77.50;;;;;;6284048;28;20241;-80
2023/12/27 06:34:51;;;;;;;13.47;4.30;;;3.10;77.50;;;;;;6278625;28;20238;-80
2023/12/27 06:37:56;;;;;;;6.00;4.27;;;3.10;77.40;;;;;;6280513;28;20725;-77
2023/12/27 06:41:02;;;;;;;9.27;4.40;;;3.10;77.50;;;;;;6277378;28;20295;-78
2023/12/27 06:44:06;;;;;;;9.27;4.10;;;3.10;77.60;;;;;;6282492;28;20245;-78
2023/12/27 06:47:10;;;;;;;12.23;4.73;;;3.10;77.70;;;;;;6285211;28;20233;-78
2023/12/27 06:50:13;;;;;;;11.43;4.20;;;3.10;77.50;;;;;;6279708;28;20241;-79
2023/12/27 06:53:17;;;;;;;8.73;4.40;;;3.10;77.50;;;;;;6283503;28;20241;-80
2023/12/27 06:56:20;;;;;;;10.90;4.43;;;3.10;77.30;;;;;;6282568;28;20240;-78
2023/12/27 06:59:23;;;;;;;8.97;4.57;;;3.10;77.30;;;;;;6276585;28;20252;-79
2023/12/27 07:02:28;;;;;;;7.13;3.87;;;3.10;77.30;;;;;;6274899;28;20856;-79
2023/12/27 07:05:31;;;;;;;8.57;4.30;;;3.10;77.50;;;;;;6276611;28;20328;-78
2023/12/27 07:08:35;;;;;;;8.37;4.30;;;3.00;77.60;;;;;;6285406;28;20720;-79
2023/12/27 07:11:38;;;;;;;12.50;4.47;;;3.00;77.90;;;;;;6268139;28;20238;-76
2023/12/27 07:14:41;;;;;;;12.23;4.90;;;3.00;77.80;;;;;;6276242;28;20367;-77
2023/12/27 07:17:46;;;;;;;9.83;4.73;;;3.00;77.80;;;;;;6281760;28;20393;-77
2023/12/27 07:20:49;;;;;;;15.60;4.53;;;3.00;77.70;;;;;;6275274;28;20225;-78
2023/12/27 07:23:52;;;;;;;8.80;4.83;;;3.00;77.60;;;;;;6255048;28;20237;-78
2023/12/27 07:26:55;;;;;;;7.63;4.47;;;3.00;77.50;;;;;;6277104;28;20234;-78
2023/12/27 07:29:59;;;;;;;9.57;4.40;;;3.00;77.60;;;;;;6284675;28;20233;-79
2023/12/27 07:33:04;;;;;;;10.53;4.60;;;3.00;77.80;;;;;;6278556;28;20237;-80
2023/12/27 07:36:09;;;;;;;5.93;4.40;;;2.90;78.00;;;;;;6277614;28;20262;-77
2023/12/27 07:39:13;;;;;;;6.90;4.43;;;3.00;77.90;;;;;;6284635;28;20257;-76
2023/12/27 07:42:17;;;;;;;8.90;4.57;;;3.00;78.00;;;;;;6279888;28;20241;-79
2023/12/27 07:45:22;;;;;;;12.03;4.73;;;3.00;77.80;;;;;;6287935;28;20825;-79
2023/12/27 07:48:27;;;;;;;10.20;4.30;;;3.00;77.70;;;;;;6280498;28;20820;-79
2023/12/27 07:51:32;;;;;;;4.67;4.03;;;3.00;77.60;;;;;;6275773;28;20916;-78
2023/12/27 07:54:37;;;;;;;8.73;4.60;;;3.00;77.70;;;;;;6285986;28;20240;-78
2023/12/27 07:57:41;;;;;;;9.57;5.00;;;3.00;77.80;;;;;;6287032;28;20312;-80
2023/12/27 08:00:45;;;;;;;6.90;3.97;;;3.00;78.00;;;;;;6276146;28;20237;-79
2023/12/27 08:03:49;;;;;;;6.27;4.70;;;3.00;78.00;;;;;;6287878;28;20241;-78
2023/12/27 08:06:53;;;;;;;9.07;4.30;;;3.10;77.40;;;;;;6281210;28;20912;-77
2023/12/27 08:09:56;;;;;;;8.97;4.37;;;3.10;77.40;;;;;;6278392;28;20320;-80
2023/12/27 08:13:00;;;;;;;9.70;4.47;;;3.20;77.50;;;;;;6283158;28;20237;-79
2023/12/27 08:16:03;;;;;;;14.90;4.37;;;3.20;77.30;;;;;;6282640;28;20374;-77
2023/12/27 08:19:08;;;;;;;19.47;4.97;;;3.20;77.20;;;;;;6288317;28;20229;-80
2023/12/27 08:22:11;;;;;;;8.50;4.73;;;3.20;77.20;;;;;;6289506;28;20388;-79
2023/12/27 08:25:15;;;;;;;6.77;4.60;;;3.20;77.20;;;;;;6276633;28;20988;-80
2023/12/27 08:28:19;;;;;;;10.50;4.60;;;3.30;77.10;;;;;;6288989;28;20732;-79
2023/12/27 08:31:22;;;;;;;11.27;4.77;;;3.30;76.90;;;;;;6287726;28;20777;-79
2023/12/27 08:34:27;;;;;;;8.20;4.57;;;3.50;76.60;;;;;;6282947;28;20241;-80
2023/12/27 08:37:30;;;;;;;8.13;4.20;;;3.50;76.50;;;;;;6276549;28;20245;-79
2023/12/27 08:40:33;;;;;;;6.40;4.47;;;3.60;76.30;;;;;;6287545;28;20815;-78
2023/12/27 08:43:37;;;;;;;7.00;4.83;;;3.60;76.30;;;;;;6285731;28;20237;-78
2023/12/27 08:46:41;;;;;;;10.73;4.83;;;3.70;75.90;;;;;;6282809;28;20242;-77
2023/12/27 08:49:46;;;;;;;13.67;4.10;;;3.80;75.50;;;;;;6280078;28;20238;-80
2023/12/27 08:52:49;;;;;;;9.63;4.30;;;3.90;75.40;;;;;;6285876;28;20241;-80
2023/12/27 08:55:52;;;;;;;8.70;5.00;;;4.00;75.00;;;;;;6285419;28;20503;-80
2023/12/27 08:58:56;;;;;;;10.93;5.00;;;4.10;75.00;;;;;;6281022;28;20237;-79
2023/12/27 09:02:00;;;;;;;4.90;4.30;;;4.20;74.40;;;;;;6282465;28;20234;-80
2023/12/27 09:05:06;;;;;;;7.67;4.60;;;4.10;74.70;;;;;;6281238;28;20724;-80
2023/12/27 09:08:09;;;;;;;6.73;4.30;;;4.10;74.50;;;;;;6285320;28;20268;-78
2023/12/27 09:11:12;;;;;;;8.40;4.37;;;4.00;74.50;;;;;;6282541;28;20837;-78
2023/12/27 09:14:15;;;;;;;11.10;5.07;;;4.10;74.70;;;;;;6285676;28;20233;-78
2023/12/27 09:17:18;;;;;;;7.10;4.40;;;4.10;74.60;;;;;;6279725;28;20805;-80
2023/12/27 09:20:23;;;;;;;10.23;5.10;;;4.20;74.40;;;;;;6281928;28;20229;-78
2023/12/27 09:23:26;;;;;;;8.63;4.90;;;4.30;74.10;;;;;;6276959;28;20233;-77
2023/12/27 09:26:29;;;;;;;8.70;4.13;;;4.30;74.20;;;;;;6278308;28;20729;-78
2023/12/27 09:29:32;;;;;;;8.20;4.03;;;4.50;73.70;;;;;;6277127;28;20232;-80
2023/12/27 09:32:36;;;;;;;4.03;3.37;;;4.50;73.30;;;;;;6287533;28;20709;-78
2023/12/27 09:35:41;;;;;;;10.07;5.47;;;4.60;73.30;;;;;;6280711;28;20306;-80
2023/12/27 09:38:45;;;;;;;7.10;4.33;;;4.60;73.20;;;;;;6283220;28;20230;-78
2023/12/27 09:41:49;;;;;;;11.87;4.33;;;4.70;73.00;;;;;;6283741;28;20352;-78
2023/12/27 09:44:54;;;;;;;8.87;4.40;;;4.80;72.50;;;;;;6278641;28;20237;-79
2023/12/27 09:47:59;;;;;;;9.13;5.07;;;4.90;72.50;;;;;;6288407;28;20229;-78
2023/12/27 09:51:06;;;;;;;8.43;4.30;;;5.00;72.20;;;;;;6268200;28;20339;-79
2023/12/27 09:54:10;;;;;;;7.70;4.77;;;5.00;72.10;;;;;;6297655;28;20241;-79
2023/12/27 09:57:13;;;;;;;7.40;4.33;;;5.10;71.70;;;;;;6277557;28;20234;-76
2023/12/27 10:00:18;;;;;;;6.37;4.27;;;5.20;71.80;;;;;;6280362;28;20229;-79
2023/12/27 10:03:29;;;;;;;10.13;4.80;;;5.30;71.80;;;;;;6278341;28;20249;-77
2023/12/27 10:06:44;;;;;;;8.27;4.47;;;5.30;71.20;;;;;;6285545;28;20229;-77
2023/12/27 10:09:48;;;;;;;11.17;4.63;;;5.30;71.10;;;;;;6279381;28;20317;-79
2023/12/27 10:12:52;;;;;;;6.57;4.23;;;5.40;70.70;;;;;;6282296;28;20264;-80
2023/12/27 10:15:55;;;;;;;4.43;4.03;;;5.30;71.10;;;;;;6284469;28;20249;-77
2023/12/27 10:19:00;;;;;;;8.43;4.47;;;5.40;71.20;;;;;;6274074;28;20237;-79
2023/12/27 10:22:05;;;;;;;6.57;3.97;;;5.50;70.90;;;;;;6274179;28;20827;-79
2023/12/27 10:25:11;;;;;;;6.70;3.97;;;5.60;70.20;;;;;;6285431;28;20736;-79
2023/12/27 10:28:15;;;;;;;7.60;4.17;;;5.60;70.80;;;;;;6273996;28;20229;-79
2023/12/27 10:31:18;;;;;;;10.90;5.00;;;5.50;70.40;;;;;;6277875;28;20245;-79
2023/12/27 10:34:23;;;;;;;7.60;4.40;;;5.50;70.20;;;;;;6273535;28;20245;-80
2023/12/27 10:37:28;;;;;;;7.83;4.73;;;5.50;70.20;;;;;;6275777;28;20742;-79
2023/12/27 10:40:31;;;;;;;8.07;5.20;;;5.60;70.30;;;;;;6281105;28;20798;-79
2023/12/27 10:43:35;;;;;;;7.50;4.10;;;5.70;70.20;;;;;;6277864;28;20240;-80
2023/12/27 10:46:38;;;;;;;9.27;4.57;;;5.70;69.80;;;;;;6280665;28;20794;-77
2023/12/27 10:49:43;;;;;;;8.47;5.10;;;5.50;70.10;;;;;;6281920;28;20249;-79
2023/12/27 10:52:55;;;;;;;6.93;4.90;;;5.50;70.50;;;;;;6274175;28;20708;-79
2023/12/27 10:56:00;;;;;;;9.70;5.63;;;5.50;70.90;;;;;;6281483;28;20244;-79
2023/12/27 10:59:05;;;;;;;5.23;4.67;;;5.60;71.00;;;;;;6280116;28;20249;-80
2023/12/27 11:02:10;;;;;;;8.90;5.20;;;5.60;71.20;;;;;;6284246;28;20237;-77
2023/12/27 11:05:13;;;;;;;9.20;4.90;;;5.60;70.90;;;;;;6275908;28;20890;-77
2023/12/27 11:08:20;;;;;;;9.37;5.23;;;5.50;71.60;;;;;;6286152;28;20244;-77
2023/12/27 11:11:26;;;;;;;13.80;5.87;;;5.50;71.50;;;;;;6282978;28;20230;-80
2023/12/27 11:14:33;;;;;;;8.53;4.33;;;5.70;71.20;;;;;;6278452;28;20272;-79
2023/12/27 11:17:38;;;;;;;9.20;5.37;;;5.80;70.60;;;;;;6279532;28;20741;-76
2023/12/27 11:20:42;;;;;;;8.67;4.90;;;5.70;70.70;;;;;;6277928;28;20237;-74
2023/12/27 11:23:46;;;;;;;10.63;5.40;;;5.70;71.20;;;;;;6271588;28;20236;-77
2023/12/27 11:26:59;;;;;;;12.63;5.90;;;5.70;71.00;;;;;;6277306;28;20287;-80
2023/12/27 11:30:04;;;;;;;10.30;5.17;;;5.70;70.80;;;;;;6279082;28;20233;-78
2023/12/27 11:33:08;;;;;;;6.60;4.77;;;5.60;71.00;;;;;;6274708;28;20887;-75
2023/12/27 11:36:11;;;;;;;7.13;5.30;;;5.50;71.10;;;;;;6280244;28;20225;-76
2023/12/27 11:39:20;;;;;;;8.90;5.10;;;5.30;71.20;;;;;;6276332;28;20315;-78
2023/12/27 11:42:25;;;;;;;9.90;4.70;;;5.30;71.50;;;;;;6285514;28;20272;-79
2023/12/27 11:45:40;;;;;;;5.23;4.37;;;5.30;71.70;;;;;;6279451;28;20340;-79
2023/12/27 11:48:44;;;;;;;7.77;5.50;;;5.30;71.50;;;;;;6281027;28;20263;-79
2023/12/27 11:51:47;;;;;;;6.50;4.30;;;5.30;71.40;;;;;;6283042;28;20233;-79
2023/12/27 11:54:52;;;;;;;11.40;4.57;;;5.30;71.60;;;;;;6276051;28;20267;-80
2023/12/27 11:57:58;;;;;;;8.07;4.73;;;5.30;71.50;;;;;;6277563;28;20327;-79
2023/12/27 12:01:22;;;;;;;8.90;5.23;;;5.50;70.90;;;;;;6279329;28;20297;-80
2023/12/27 12:04:44;;;;;;;9.60;5.27;;;5.30;71.30;;;;;;6277088;28;20266;-78
2023/12/27 12:07:57;;;;;;;7.37;4.80;;;5.00;71.90;;;;;;6287030;28;20351;-80
2023/12/27 12:11:10;;;;;;;7.47;4.60;;;5.20;72.00;;;;;;6281515;28;20721;-79
2023/12/27 12:14:13;;;;;;;5.77;4.50;;;5.30;71.50;;;;;;6272537;28;20267;-80
2023/12/27 12:17:17;;;;;;;8.37;4.60;;;5.20;71.50;;;;;;6275010;28;20237;-78
2023/12/27 12:20:20;;;;;;;9.23;4.60;;;5.30;71.50;;;;;;6273670;28;20248;-81
2023/12/27 12:23:24;;;;;;;10.80;4.63;;;5.30;71.10;;;;;;6274125;28;20241;-79
2023/12/27 12:26:28;;;;;;;5.50;5.00;;;5.30;70.90;;;;;;6278731;28;20284;-80
2023/12/27 12:29:32;;;;;;;11.93;4.57;;;5.30;70.90;;;;;;6284997;28;20329;-80
2023/12/27 12:32:40;;;;;;;7.83;4.43;;;5.30;71.00;;;;;;6278020;28;20288;-79
2023/12/27 12:35:44;;;;;;;14.87;5.50;;;5.30;71.00;;;;;;6282488;28;23173;-79
2023/12/27 12:38:47;;;;;;;32.73;18.17;;;5.30;70.90;;;;;;6286869;28;20245;-77
2023/12/27 12:41:51;;;;;;;10.13;5.93;;;5.30;71.30;;;;;;6276955;28;20238;-79
2023/12/27 12:44:55;;;;;;;10.77;5.90;;;5.10;71.70;;;;;;6278796;28;20755;-79
2023/12/27 12:47:58;;;;;;;6.60;5.50;;;4.90;72.40;;;;;;6288994;28;20314;-80
2023/12/27 12:51:12;;;;;;;8.80;5.30;;;4.90;72.50;;;;;;6283514;28;20322;-81
2023/12/27 12:54:15;;;;;;;13.57;5.77;;;4.90;72.50;;;;;;6291076;28;20234;-80
2023/12/27 12:57:20;;;;;;;13.10;6.30;;;4.90;72.60;;;;;;6282241;28;20819;-80
2023/12/27 13:00:23;;;;;;;6.53;4.97;;;4.80;72.90;;;;;;6272783;28;20942;-78
2023/12/27 13:03:28;;;;;;;8.27;5.13;;;4.90;72.70;;;;;;6288984;28;20619;-80
2023/12/27 13:06:31;;;;;;;12.33;6.20;;;4.90;72.50;;;;;;6264241;28;20242;-78
2023/12/27 13:09:57;;;;;;;6.00;5.10;;;4.70;72.60;;;;;;6295645;28;20290;-80
2023/12/27 13:13:02;;;;;;;9.83;5.83;;;4.80;72.70;;;;;;6288778;28;20244;-81
2023/12/27 13:16:06;;;;;;;9.17;5.67;;;4.80;72.40;;;;;;6286139;28;20233;-79
2023/12/27 13:19:09;;;;;;;5.63;4.70;;;4.90;72.30;;;;;;6280775;28;20232;-80
2023/12/27 13:22:13;;;;;;;6.53;5.80;;;4.90;72.50;;;;;;6279201;28;20259;-80
2023/12/27 13:25:16;;;;;;;10.57;6.40;;;5.00;72.10;;;;;;6277947;28;20241;-77
2023/12/27 13:28:25;;;;;;;12.00;5.93;;;4.90;72.20;;;;;;6285569;28;20225;-79
2023/12/27 13:31:28;;;;;;;10.63;6.37;;;4.90;72.30;;;;;;6287017;28;20241;-78
2023/12/27 13:34:32;;;;;;;9.33;5.80;;;5.00;72.20;;;;;;6280084;28;20249;-80
2023/12/27 13:37:35;;;;;;;14.93;7.20;;;5.00;72.10;;;;;;6276785;28;20233;-80
2023/12/27 13:40:38;;;;;;;8.40;5.87;;;4.90;72.50;;;;;;6279842;28;20971;-78
2023/12/27 13:43:43;;;;;;;6.20;5.63;;;4.90;72.50;;;;;;6286880;28;20753;-81
2023/12/27 13:46:46;;;;;;;11.07;6.13;;;4.80;72.60;;;;;;6273712;28;20229;-78
2023/12/27 13:49:50;;;;;;;9.53;7.20;;;4.80;72.80;;;;;;6281639;28;20225;-77
2023/12/27 13:52:53;;;;;;;12.90;7.83;;;4.80;72.90;;;;;;6280020;28;20233;-77
2023/12/27 13:55:56;;;;;;;15.73;7.63;;;4.80;73.10;;;;;;6287314;28;20557;-78
2023/12/27 13:59:01;;;;;;;16.57;8.43;;;4.70;73.20;;;;;;6285509;28;20236;-80
2023/12/27 14:02:04;;;;;;;16.20;10.60;;;4.70;73.40;;;;;;6281493;28;20901;-79
2023/12/27 14:05:09;;;;;;;19.37;8.73;;;4.70;73.30;;;;;;6287589;28;20310;-80
2023/12/27 14:08:12;;;;;;;10.10;7.23;;;4.70;73.10;;;;;;6290617;28;20225;-80
2023/12/27 14:11:16;;;;;;;15.23;8.13;;;4.70;73.30;;;;;;6291893;28;20232;-79
2023/12/27 14:14:21;;;;;;;13.70;6.77;;;4.70;73.10;;;;;;6292944;28;20248;-79
2023/12/27 14:17:25;;;;;;;12.00;6.87;;;4.70;73.10;;;;;;6279808;28;20252;-81
2023/12/27 14:20:29;;;;;;;12.63;7.20;;;4.70;73.00;;;;;;6285970;28;20233;-81
2023/12/27 14:23:32;;;;;;;11.00;6.73;;;4.70;72.90;;;;;;6289213;28;20248;-81
2023/12/27 14:26:37;;;;;;;6.90;6.20;;;4.60;73.20;;;;;;6280565;28;20241;-79
2023/12/27 14:29:41;;;;;;;11.33;5.97;;;4.50;73.30;;;;;;6280353;28;20234;-78
2023/12/27 14:32:44;;;;;;;7.13;5.87;;;4.50;73.60;;;;;;6271529;28;20253;-80
2023/12/27 14:35:47;;;;;;;11.03;5.57;;;4.40;73.80;;;;;;6272692;28;20238;-80
2023/12/27 14:38:51;;;;;;;8.30;6.67;;;4.40;73.90;;;;;;6277290;28;20230;-80
2023/12/27 14:41:55;;;;;;;11.47;5.93;;;4.30;74.10;;;;;;6270285;28;20233;-78
2023/12/27 14:45:00;;;;;;;8.77;6.30;;;4.30;74.40;;;;;;6285704;28;20233;-78
2023/12/27 14:48:03;;;;;;;14.90;7.17;;;4.30;74.30;;;;;;6285913;28;20307;-80
2023/12/27 14:51:07;;;;;;;10.83;5.93;;;4.30;74.60;;;;;;6281459;28;20743;-79
2023/12/27 14:54:11;;;;;;;10.23;5.90;;;4.30;74.50;;;;;;6284687;28;20418;-81
2023/12/27 14:57:15;;;;;;;15.10;6.63;;;4.30;74.70;;;;;;6284254;28;20263;-80
2023/12/27 15:00:20;;;;;;;8.77;6.30;;;4.20;74.80;;;;;;6269573;28;20690;-79
2023/12/27 15:03:23;;;;;;;11.17;7.00;;;4.30;74.80;;;;;;6279526;28;20952;-79
2023/12/27 15:06:26;;;;;;;9.90;6.70;;;4.30;74.80;;;;;;6284950;28;20245;-80
2023/12/27 15:09:30;;;;;;;13.30;6.10;;;4.30;74.80;;;;;;6264491;28;20241;-78
2023/12/27 15:12:33;;;;;;;14.57;7.17;;;4.30;75.00;;;;;;6278646;28;20599;-79
2023/12/27 15:15:37;;;;;;;15.13;6.83;;;4.40;74.90;;;;;;6275483;28;20320;-78
2023/12/27 15:18:41;;;;;;;15.60;7.40;;;4.30;74.70;;;;;;6275877;28;20263;-78
2023/12/27 15:21:45;;;;;;;11.67;7.30;;;4.30;75.00;;;;;;6281392;28;20624;-78
2023/12/27 15:24:48;;;;;;;10.77;6.10;;;4.30;75.00;;;;;;6278102;28;20379;-80
2023/12/27 15:27:52;;;;;;;10.07;6.67;;;4.30;75.00;;;;;;6274437;28;20367;-79
2023/12/27 15:30:56;;;;;;;9.73;6.00;;;4.30;74.90;;;;;;6275653;28;20238;-80
2023/12/27 15:34:00;;;;;;;13.53;6.00;;;4.40;74.80;;;;;;6276476;28;20229;-80
2023/12/27 15:37:04;;;;;;;12.83;6.47;;;4.30;74.80;;;;;;6283585;28;20271;-79
2023/12/27 15:40:08;;;;;;;9.93;5.97;;;4.30;74.80;;;;;;6274179;28;20698;-78
2023/12/27 15:43:11;;;;;;;11.07;6.77;;;4.30;74.90;;;;;;6271020;28;20265;-76
2023/12/27 15:46:17;;;;;;;12.37;6.57;;;4.20;75.00;;;;;;6281579;28;20242;-80
2023/12/27 15:49:20;;;;;;;10.27;6.70;;;4.20;75.20;;;;;;6279033;28;20373;-81
2023/12/27 15:52:24;;;;;;;13.00;7.03;;;4.20;75.20;;;;;;6277577;28;20292;-78
2023/12/27 15:55:27;;;;;;;10.33;6.80;;;4.20;75.30;;;;;;6274629;28;20233;-79
2023/12/27 15:58:30;;;;;;;9.43;7.63;;;4.20;75.30;;;;;;6280084;28;20279;-80
2023/12/27 16:01:35;;;;;;;13.20;7.03;;;4.30;75.30;;;;;;6287865;28;20240;-79
2023/12/27 16:04:39;;;;;;;17.17;8.50;;;4.30;75.30;;;;;;6264554;28;20252;-79
2023/12/27 16:07:42;;;;;;;13.13;8.60;;;4.30;75.30;;;;;;6280718;28;20241;-80